sensor_id;sensor_type;location;lat;lon;timestamp;temperature;humidity
8172;DHT22;4127;47.908;10.850;2023-04-02T07:54:34;7.90;99.90
8172;DHT22;4127;47.908;10.850;2023-04-02T07:57:01;8.00;99.90
8172;DHT22;4127;47.908;10.850;2023-04-02T07:59:28;8.20;99.90
8172;DHT22;4127;47.908;10.850;2023-04-02T08:06:06;8.40;99.90
8172;DHT22;4127;47.908;10.850;2023-04-02T08:08:36;8.50;99.90
8172;DHT22;4127;47.908;10.850;2023-04-02T08:11:03;8.80;99.90
8172;DHT22;4127;47.908;10.850;2023-04-02T08:13:35;8.90;99.90
8172;DHT22;4127;47.908;10.850;2023-04-02T12:16:10;10.90;99.90
8172;DHT22;4127;47.908;10.850;2023-04-02T12:18:44;10.60;99.90
8172;DHT22;4127;47.908;10.850;2023-04-02T12:21:17;10.40;99.90
8172;DHT22;4127;47.908;10.850;2023-04-02T12:23:59;9.80;99.90
8172;DHT22;4127;47.908;10.850;2023-04-02T12:26:48;9.70;99.90
8172;DHT22;4127;47.908;10.850;2023-04-02T12:29:26;9.40;99.90
8172;DHT22;4127;47.908;10.850;2023-04-02T12:31:54;9.10;99.90
8172;DHT22;4127;47.908;10.850;2023-04-02T12:34:24;8.90;99.90
8172;DHT22;4127;47.908;10.850;2023-04-02T12:36:52;8.60;99.90
8172;DHT22;4127;47.908;10.850;2023-04-02T12:39:20;8.60;99.90
8172;DHT22;4127;47.908;10.850;2023-04-02T12:41:47;8.60;99.90
8172;DHT22;4127;47.908;10.850;2023-04-02T12:44:17;8.30;99.90
8172;DHT22;4127;47.908;10.850;2023-04-02T12:46:45;8.30;99.90
8172;DHT22;4127;47.908;10.850;2023-04-02T12:49:37;8.30;99.90
8172;DHT22;4127;47.908;10.850;2023-04-02T12:52:15;8.40;99.90
8172;DHT22;4127;47.908;10.850;2023-04-02T12:54:55;8.50;99.90
8172;DHT22;4127;47.908;10.850;2023-04-02T13:00:00;9.10;99.90
8172;DHT22;4127;47.908;10.850;2023-04-02T13:02:41;9.50;99.90
8172;DHT22;4127;47.908;10.850;2023-04-02T13:05:10;9.50;99.90
8172;DHT22;4127;47.908;10.850;2023-04-02T13:07:38;9.50;99.90
8172;DHT22;4127;47.908;10.850;2023-04-02T13:10:22;9.40;99.90
8172;DHT22;4127;47.908;10.850;2023-04-02T13:12:55;9.20;99.90
8172;DHT22;4127;47.908;10.850;2023-04-02T13:15:25;9.30;99.90
8172;DHT22;4127;47.908;10.850;2023-04-02T13:20:40;9.40;99.90
8172;DHT22;4127;47.908;10.850;2023-04-02T13:25:52;9.40;99.90
8172;DHT22;4127;47.908;10.850;2023-04-02T13:28:19;9.40;99.90
8172;DHT22;4127;47.908;10.850;2023-04-02T13:30:47;9.30;99.90
8172;DHT22;4127;47.908;10.850;2023-04-02T13:33:14;9.40;99.90
8172;DHT22;4127;47.908;10.850;2023-04-02T13:35:42;9.30;99.90
8172;DHT22;4127;47.908;10.850;2023-04-02T13:38:09;9.40;99.90
8172;DHT22;4127;47.908;10.850;2023-04-02T13:40:36;9.40;99.90
8172;DHT22;4127;47.908;10.850;2023-04-02T13:43:04;9.50;99.90
8172;DHT22;4127;47.908;10.850;2023-04-02T13:45:35;9.60;99.90
8172;DHT22;4127;47.908;10.850;2023-04-02T13:48:03;9.60;99.90
8172;DHT22;4127;47.908;10.850;2023-04-02T13:50:33;9.60;99.90
8172;DHT22;4127;47.908;10.850;2023-04-02T13:53:05;9.70;99.90
8172;DHT22;4127;47.908;10.850;2023-04-02T13:55:38;9.90;99.90
8172;DHT22;4127;47.908;10.850;2023-04-02T13:58:06;9.90;99.90
8172;DHT22;4127;47.908;10.850;2023-04-02T14:00:35;9.90;99.90
8172;DHT22;4127;47.908;10.850;2023-04-02T14:03:10;10.00;99.90
8172;DHT22;4127;47.908;10.850;2023-04-02T14:11:02;10.50;99.90
8172;DHT22;4127;47.908;10.850;2023-04-02T14:27:30;10.90;99.90
8172;DHT22;4127;47.908;10.850;2023-04-02T14:30:26;11.00;99.90
8172;DHT22;4127;47.908;10.850;2023-04-02T14:35:44;11.40;99.90
8172;DHT22;4127;47.908;10.850;2023-04-02T14:40:53;11.50;99.90
8172;DHT22;4127;47.908;10.850;2023-04-02T14:43:29;11.60;99.90
8172;DHT22;4127;47.908;10.850;2023-04-02T14:46:02;11.20;99.90
8172;DHT22;4127;47.908;10.850;2023-04-02T14:48:53;11.00;99.90
8172;DHT22;4127;47.908;10.850;2023-04-02T14:51:43;11.10;99.90
8172;DHT22;4127;47.908;10.850;2023-04-02T14:54:39;11.10;99.90
8172;DHT22;4127;47.908;10.850;2023-04-02T15:07:58;10.90;99.90
8172;DHT22;4127;47.908;10.850;2023-04-02T15:10:33;10.40;99.90
8172;DHT22;4127;47.908;10.850;2023-04-02T15:13:05;10.10;99.90
8172;DHT22;4127;47.908;10.850;2023-04-02T15:15:44;10.00;99.90
8172;DHT22;4127;47.908;10.850;2023-04-02T15:18:14;9.80;99.90
8172;DHT22;4127;47.908;10.850;2023-04-02T15:23:22;9.20;99.90
8172;DHT22;4127;47.908;10.850;2023-04-02T15:28:42;8.90;99.90
8172;DHT22;4127;47.908;10.850;2023-04-02T15:31:13;9.00;99.90
8172;DHT22;4127;47.908;10.850;2023-04-02T15:42:18;9.20;99.90
8172;DHT22;4127;47.908;10.850;2023-04-02T15:44:59;8.90;99.90
8172;DHT22;4127;47.908;10.850;2023-04-02T15:53:19;8.60;99.90
8172;DHT22;4127;47.908;10.850;2023-04-02T16:13:18;8.70;99.90
8172;DHT22;4127;47.908;10.850;2023-04-02T16:21:14;8.60;99.90
8172;DHT22;4127;47.908;10.850;2023-04-02T16:23:43;8.30;99.90
8172;DHT22;4127;47.908;10.850;2023-04-02T16:39:46;8.00;99.90
8172;DHT22;4127;47.908;10.850;2023-04-02T16:44:55;7.80;99.90
8172;DHT22;4127;47.908;10.850;2023-04-02T16:51:02;7.50;99.90
8172;DHT22;4127;47.908;10.850;2023-04-02T16:53:45;7.50;99.90
8172;DHT22;4127;47.908;10.850;2023-04-02T17:05:04;7.40;99.90
8172;DHT22;4127;47.908;10.850;2023-04-02T17:10:32;7.30;99.90
8172;DHT22;4127;47.908;10.850;2023-04-02T17:13:25;7.40;99.90
8172;DHT22;4127;47.908;10.850;2023-04-02T17:18:30;7.20;99.90
8172;DHT22;4127;47.908;10.850;2023-04-02T17:21:05;7.30;99.90
8172;DHT22;4127;47.908;10.850;2023-04-02T17:23:42;7.20;99.90
8172;DHT22;4127;47.908;10.850;2023-04-02T17:26:26;7.20;99.90
8172;DHT22;4127;47.908;10.850;2023-04-02T17:28:54;7.10;99.90
8172;DHT22;4127;47.908;10.850;2023-04-02T17:31:24;7.10;99.90
8172;DHT22;4127;47.908;10.850;2023-04-02T17:33:52;7.00;99.90
8172;DHT22;4127;47.908;10.850;2023-04-02T17:36:30;6.90;99.90
8172;DHT22;4127;47.908;10.850;2023-04-02T17:42:24;7.10;99.90
8172;DHT22;4127;47.908;10.850;2023-04-02T17:45:05;7.00;99.90
8172;DHT22;4127;47.908;10.850;2023-04-02T17:52:47;6.90;99.90
8172;DHT22;4127;47.908;10.850;2023-04-02T18:06:46;6.10;99.90
8172;DHT22;4127;47.908;10.850;2023-04-02T18:26:40;5.80;99.90
8172;DHT22;4127;47.908;10.850;2023-04-02T18:43:14;5.80;99.90
8172;DHT22;4127;47.908;10.850;2023-04-02T18:48:46;5.80;99.90
8172;DHT22;4127;47.908;10.850;2023-04-02T18:51:23;5.80;99.90
8172;DHT22;4127;47.908;10.850;2023-04-02T18:54:15;5.90;99.90
8172;DHT22;4127;47.908;10.850;2023-04-02T18:56:43;5.60;99.90
8172;DHT22;4127;47.908;10.850;2023-04-02T18:59:33;5.60;99.90
8172;DHT22;4127;47.908;10.850;2023-04-02T19:05:12;5.60;99.90
8172;DHT22;4127;47.908;10.850;2023-04-02T19:07:42;5.50;99.90
8172;DHT22;4127;47.908;10.850;2023-04-02T19:10:43;5.70;99.90
8172;DHT22;4127;47.908;10.850;2023-04-02T19:13:15;5.40;99.90
8172;DHT22;4127;47.908;10.850;2023-04-02T19:21:33;5.20;99.90
8172;DHT22;4127;47.908;10.850;2023-04-02T22:29:11;1.60;99.90
8172;DHT22;4127;47.908;10.850;2023-04-02T22:31:38;1.60;99.90
8172;DHT22;4127;47.908;10.850;2023-04-02T22:34:05;1.60;99.90
8172;DHT22;4127;47.908;10.850;2023-04-02T22:36:32;1.60;99.90
8172;DHT22;4127;47.908;10.850;2023-04-02T22:39:00;1.50;99.90
8172;DHT22;4127;47.908;10.850;2023-04-02T22:41:28;1.60;99.90
8172;DHT22;4127;47.908;10.850;2023-04-02T22:43:56;1.50;99.90
8172;DHT22;4127;47.908;10.850;2023-04-02T22:46:24;1.50;99.90
8172;DHT22;4127;47.908;10.850;2023-04-02T22:48:52;1.70;99.90
8172;DHT22;4127;47.908;10.850;2023-04-02T22:51:21;1.50;99.90
8172;DHT22;4127;47.908;10.850;2023-04-02T22:53:48;1.50;99.90
8172;DHT22;4127;47.908;10.850;2023-04-02T22:56:17;1.50;99.90
8172;DHT22;4127;47.908;10.850;2023-04-02T22:58:45;1.60;99.90
8172;DHT22;4127;47.908;10.850;2023-04-02T23:01:21;1.60;99.90
8172;DHT22;4127;47.908;10.850;2023-04-02T23:03:48;1.50;99.90
8172;DHT22;4127;47.908;10.850;2023-04-02T23:06:17;1.40;99.90
8172;DHT22;4127;47.908;10.850;2023-04-02T23:08:44;1.40;99.90
8172;DHT22;4127;47.908;10.850;2023-04-02T23:11:16;1.30;99.90
8172;DHT22;4127;47.908;10.850;2023-04-02T23:13:45;1.20;99.90
8172;DHT22;4127;47.908;10.850;2023-04-02T23:16:13;1.30;99.90
8172;DHT22;4127;47.908;10.850;2023-04-02T23:18:41;1.30;99.90
8172;DHT22;4127;47.908;10.850;2023-04-02T23:21:08;1.30;99.90
8172;DHT22;4127;47.908;10.850;2023-04-02T23:23:35;1.30;99.90
8172;DHT22;4127;47.908;10.850;2023-04-02T23:26:17;1.30;99.90
8172;DHT22;4127;47.908;10.850;2023-04-02T23:28:44;1.30;99.90
8172;DHT22;4127;47.908;10.850;2023-04-02T23:31:14;1.10;99.90
8172;DHT22;4127;47.908;10.850;2023-04-02T23:33:41;1.10;99.90
8172;DHT22;4127;47.908;10.850;2023-04-02T23:36:11;1.00;99.90
8172;DHT22;4127;47.908;10.850;2023-04-02T23:38:38;0.90;99.90
8172;DHT22;4127;47.908;10.850;2023-04-02T23:41:05;1.00;99.90
8172;DHT22;4127;47.908;10.850;2023-04-02T23:43:32;1.00;99.90
8172;DHT22;4127;47.908;10.850;2023-04-02T23:45:59;1.10;99.90
8172;DHT22;4127;47.908;10.850;2023-04-02T23:48:26;1.10;99.90
8172;DHT22;4127;47.908;10.850;2023-04-02T23:50:53;1.10;99.90
8172;DHT22;4127;47.908;10.850;2023-04-02T23:53:20;1.10;99.90
8172;DHT22;4127;47.908;10.850;2023-04-02T23:55:47;1.00;99.90
8172;DHT22;4127;47.908;10.850;2023-04-02T23:58:13;1.00;99.90
